Portada
METAR-TAF:

METAR-TAF

Aeropuertos :

Aeropuerto de la Ciudad de Belfast George Best

Belfast City, Irlanda del Norte

latitud: 54-36N, longitud: 005-53W, altitud: 5 m

Observación

El informe se hizo hace 18 minutos, a las 23:50 UTC
Viento 11 kt del suroeste
Temperatura 15°C
Humedad 82%
Presión 1026 hPa
Visibilidad 10 km o más

METAR: EGAC 212350Z AUTO 22011KT 9999 OVC029/// 15/12 Q1026

Hora: 01:08 (00:08 UTC)

Pronóstico

El informe se hizo hace 7 horas y 9 minutos, a las 16:59 UTC
Pronóstico válido del 21 a las 18 UTC al 21 a las 21 UTC
Viento 10 kt del suroeste
Visibilidad 10 km o más
Escasas nubes a una altura de 2000 ft
Nubes dispersas a una altura de 2500 ft

TAF: EGAC 211659Z 2118/2121 23010KT 9999 FEW020 SCT025

Observaciones y pronósticos meteorológicos de más de 4000 aeropuertos (mensajes METAR y TAF).

Los puntos amarillos y rojos representan las estaciones disponibles.

Ponga el ratón en el punto deseado para ver el nombre de la estación.

Haga clic para ver las observaciones y los pronósticos meteorológicos.

Para cambiar el mapa : haga clic en los botones verdes con una cruz de color negro para hacer un zoom, en el botón verde con un guión para alejar o en las flechas verdes para mapas adyacentes.


METAR-TAF: